Time;durP1;ratioP1;P1;durP2;ratioP2;P2;SDS_P1;SDS_P2;PMS_P1;PMS_P2;Temp;Humidity;BMP_temperature;BMP_pressure;BME280_temperature;BME280_humidity;BME280_pressure;Samples;Min_cycle;Max_cycle;Signal;HPM_P1;HPM_P2
2023/04/23 00:01:03;;;;;;;3.47;2.33;;;;;;;14.46;65.13;96058.69;5054272;28;20049;-78
2023/04/23 00:03:31;;;;;;;6.43;2.75;;;;;;;14.45;63.88;96057.09;5053380;28;20113;-78
2023/04/23 00:06:03;;;;;;;3.28;2.60;;;;;;;14.42;63.58;96048.63;5053511;28;20053;-78
2023/04/23 00:08:32;;;;;;;4.18;2.70;;;;;;;14.38;63.54;96047.47;5053049;28;20046;-77
2023/04/23 00:11:00;;;;;;;5.63;2.83;;;;;;;14.35;63.59;96039.25;5054893;28;20053;-78
2023/04/23 00:13:29;;;;;;;3.67;2.40;;;;;;;14.31;63.55;96038.88;5048065;28;20110;-78
2023/04/23 00:15:57;;;;;;;2.70;2.40;;;;;;;14.27;63.56;96050.81;5029521;28;20050;-78
2023/04/23 00:18:25;;;;;;;3.42;2.67;;;;;;;14.21;63.63;96046.44;5027437;28;20061;-79
2023/04/23 00:20:53;;;;;;;3.80;2.60;;;;;;;14.18;63.55;96041.63;5025442;28;20088;-78
2023/04/23 00:23:21;;;;;;;5.38;2.78;;;;;;;14.17;63.36;96042.66;5027060;28;20050;-78
2023/04/23 00:25:49;;;;;;;3.47;2.70;;;;;;;14.20;63.12;96044.84;5026883;28;20060;-78
2023/04/23 00:28:17;;;;;;;6.30;4.32;;;;;;;14.21;62.89;96036.75;5030115;28;20040;-78
2023/04/23 00:30:49;;;;;;;9.63;6.45;;;;;;;14.27;62.67;96037.69;5037333;28;20062;-77
2023/04/23 00:33:17;;;;;;;15.43;7.15;;;;;;;14.28;62.54;96044.56;5038057;28;20068;-78
2023/04/23 00:35:45;;;;;;;11.88;7.25;;;;;;;14.32;63.25;96052.78;5038809;28;20057;-78
2023/04/23 00:38:13;;;;;;;5.88;3.53;;;;;;;14.37;65.43;96060.81;5038696;28;20105;-78
2023/04/23 00:40:41;;;;;;;2.70;2.38;;;;;;;14.42;64.96;96046.00;5038967;28;20034;-78
2023/04/23 00:43:08;;;;;;;3.45;2.45;;;;;;;14.46;64.18;96051.63;5037886;28;20084;-78
2023/04/23 00:45:36;;;;;;;2.38;2.17;;;;;;;14.53;66.63;96054.16;5037903;28;20040;-78
2023/04/23 00:48:06;;;;;;;3.97;2.38;;;;;;;14.57;63.25;96045.66;5037671;28;20045;-78
2023/04/23 00:50:34;;;;;;;2.35;2.10;;;;;;;14.60;65.87;96047.84;5027423;28;20133;-78
2023/04/23 00:53:02;;;;;;;3.22;2.72;;;;;;;14.65;66.87;96041.94;5025283;28;20120;-78
2023/04/23 00:55:29;;;;;;;2.90;2.50;;;;;;;14.67;65.47;96049.59;5025971;28;20046;-78
2023/04/23 00:57:57;;;;;;;6.28;2.67;;;;;;;14.70;66.16;96043.91;5025472;28;20042;-78
2023/04/23 01:00:25;;;;;;;4.20;2.55;;;;;;;14.70;65.74;96044.72;5025845;28;20397;-78
2023/04/23 01:02:53;;;;;;;8.32;2.08;;;;;;;14.71;62.67;96048.91;5025257;28;20080;-78
2023/04/23 01:05:23;;;;;;;3.28;1.90;;;;;;;14.71;64.48;96046.28;5028525;28;20057;-78
2023/04/23 01:07:51;;;;;;;2.92;1.75;;;;;;;14.72;64.25;96042.66;5028727;28;20041;-78
2023/04/23 01:10:19;;;;;;;4.50;2.15;;;;;;;14.73;63.72;96054.75;5027793;28;20109;-78
2023/04/23 01:12:48;;;;;;;4.75;2.15;;;;;;;14.71;60.94;96046.28;5027726;28;20049;-78
2023/04/23 01:15:16;;;;;;;3.17;2.03;;;;;;;14.71;62.71;96048.91;5025474;28;20425;-78
2023/04/23 01:17:43;;;;;;;3.35;1.73;;;;;;;14.73;61.66;96052.13;5028093;28;20142;-78
2023/04/23 01:20:11;;;;;;;3.53;2.05;;;;;;;14.76;62.29;96064.84;5024993;28;20078;-77
2023/04/23 01:22:41;;;;;;;4.53;1.95;;;;;;;14.79;62.76;96060.97;5025624;28;20081;-78
2023/04/23 01:25:09;;;;;;;2.15;1.90;;;;;;;14.80;63.96;96067.78;5025787;28;20049;-78
2023/04/23 01:27:37;;;;;;;4.10;1.98;;;;;;;14.80;64.58;96066.00;5034283;28;20056;-79
2023/04/23 01:30:06;;;;;;;4.72;2.30;;;;;;;14.83;65.11;96072.63;5029151;28;20064;-78
2023/04/23 01:32:35;;;;;;;6.72;2.22;;;;;;;14.83;64.69;96075.25;5028914;28;20050;-78
2023/04/23 01:35:03;;;;;;;3.08;2.25;;;;;;;14.80;65.67;96075.66;5033678;28;20053;-78
2023/04/23 01:37:32;;;;;;;3.92;2.50;;;;;;;14.77;63.51;96074.28;5029807;28;20046;-78
2023/04/23 01:40:01;;;;;;;2.42;2.05;;;;;;;14.79;65.70;96074.88;5032541;28;20071;-78
2023/04/23 01:42:29;;;;;;;8.48;2.70;;;;;;;14.75;63.16;96073.72;5032455;28;20058;-77
2023/04/23 01:44:56;;;;;;;3.50;2.33;;;;;;;14.75;66.09;96068.47;5029238;28;20052;-78
2023/04/23 01:47:25;;;;;;;3.92;2.58;;;;;;;14.78;67.72;96077.72;5029905;28;20056;-78
2023/04/23 01:49:52;;;;;;;4.13;2.38;;;;;;;14.77;65.36;96082.16;5029116;28;20054;-78
2023/04/23 01:52:20;;;;;;;3.97;2.10;;;;;;;14.75;65.17;96081.59;5029226;28;20109;-78
2023/04/23 01:54:48;;;;;;;4.97;2.40;;;;;;;14.74;66.95;96082.63;5031901;28;20034;-78
2023/04/23 01:57:22;;;;;;;7.65;2.55;;;;;;;14.76;66.17;96085.03;5028659;28;20084;-78
2023/04/23 01:59:50;;;;;;;2.28;2.00;;;;;;;14.74;67.80;96087.88;5029907;28;20100;-78
2023/04/23 02:02:18;;;;;;;4.43;2.55;;;;;;;14.75;65.25;96086.03;5031654;28;20118;-78
2023/04/23 02:04:48;;;;;;;3.00;2.22;;;;;;;14.71;66.00;96096.19;5029794;28;20046;-78
2023/04/23 02:07:15;;;;;;;2.72;2.35;;;;;;;14.71;68.27;96098.00;5031367;28;20049;-78
2023/04/23 02:09:43;;;;;;;3.53;2.45;;;;;;;14.69;67.38;96095.59;5031640;28;20058;-78
2023/04/23 02:12:11;;;;;;;5.18;2.28;;;;;;;14.67;65.10;96096.84;5033622;28;20097;-78
2023/04/23 02:14:40;;;;;;;5.00;2.90;;;;;;;14.65;67.45;96107.56;5032906;28;20054;-78
2023/04/23 02:17:08;;;;;;;4.35;2.58;;;;;;;14.68;69.02;96098.47;5035480;28;20072;-78
2023/04/23 02:19:35;;;;;;;5.32;2.30;;;;;;;14.69;68.54;96107.91;5031568;28;20121;-78
2023/04/23 02:22:03;;;;;;;3.60;2.50;;;;;;;14.69;68.49;96100.84;5033477;28;20069;-78
2023/04/23 02:24:31;;;;;;;5.22;2.63;;;;;;;14.69;67.34;96108.72;5031587;28;20056;-78
2023/04/23 02:26:58;;;;;;;2.53;2.30;;;;;;;14.69;68.38;96110.53;5032829;28;20113;-78
2023/04/23 02:29:26;;;;;;;4.53;2.35;;;;;;;14.68;69.12;96115.00;5035979;28;20042;-78
2023/04/23 02:31:55;;;;;;;5.40;2.80;;;;;;;14.63;65.57;96110.41;5034026;28;20105;-78
2023/04/23 02:34:23;;;;;;;4.45;2.33;;;;;;;14.57;64.82;96107.88;5026654;28;20113;-78
2023/04/23 02:36:51;;;;;;;4.57;2.47;;;;;;;14.51;65.56;96113.94;5027676;28;20060;-78
2023/04/23 02:39:19;;;;;;;4.82;2.50;;;;;;;14.52;67.91;96115.53;5030588;28;20133;-78
2023/04/23 02:41:47;;;;;;;3.10;2.33;;;;;;;14.49;65.19;96108.13;5030702;28;20085;-78
2023/04/23 02:44:14;;;;;;;3.95;2.58;;;;;;;14.46;66.50;96108.56;5028018;28;20117;-78
2023/04/23 02:46:42;;;;;;;3.22;2.60;;;;;;;14.46;67.69;96106.72;5030252;28;20054;-78
2023/04/23 02:49:11;;;;;;;6.95;2.88;;;;;;;14.48;67.41;96109.16;5030309;28;20050;-78
2023/04/23 02:51:38;;;;;;;4.10;2.95;;;;;;;14.47;68.43;96112.78;5031173;28;20060;-78
2023/04/23 02:54:06;;;;;;;3.03;2.55;;;;;;;14.47;69.09;96112.78;5032656;28;20133;-78
2023/04/23 02:56:34;;;;;;;4.68;2.60;;;;;;;14.47;70.14;96113.56;5030294;28;20046;-78
2023/04/23 02:59:01;;;;;;;2.63;2.42;;;;;;;14.47;70.11;96113.56;5033459;28;20046;-78
2023/04/23 03:01:29;;;;;;;4.13;2.28;;;;;;;14.47;68.85;96115.41;5033530;28;20054;-78
2023/04/23 03:03:57;;;;;;;3.08;2.25;;;;;;;14.41;68.83;96117.09;5033046;28;20054;-79
2023/04/23 03:06:26;;;;;;;3.42;2.50;;;;;;;14.39;68.69;96122.53;5032600;28;20050;-78
2023/04/23 03:08:54;;;;;;;4.00;2.20;;;;;;;14.33;68.96;96118.16;5032252;28;20052;-78
2023/04/23 03:11:22;;;;;;;6.05;2.90;;;;;;;14.31;70.06;96127.28;5031169;28;20125;-78
2023/04/23 03:13:50;;;;;;;3.63;2.25;;;;;;;14.30;71.25;96109.91;5028895;28;20493;-79
2023/04/23 03:16:17;;;;;;;3.80;3.08;;;;;;;14.28;69.51;96125.88;5029012;28;20080;-78
2023/04/23 03:18:45;;;;;;;4.40;2.88;;;;;;;14.27;69.49;96119.03;5030965;28;20054;-78
2023/04/23 03:21:13;;;;;;;4.00;2.35;;;;;;;14.25;69.55;96120.25;5029033;28;20105;-78
2023/04/23 03:23:42;;;;;;;2.42;2.22;;;;;;;14.21;69.37;96123.31;5028847;28;20049;-78
2023/04/23 03:26:09;;;;;;;4.20;2.30;;;;;;;14.17;68.92;96123.97;5031619;28;20050;-78
2023/04/23 03:28:37;;;;;;;3.58;2.25;;;;;;;14.16;70.47;96117.13;5031977;28;20045;-78
2023/04/23 03:31:04;;;;;;;2.42;2.22;;;;;;;14.16;71.86;96122.34;5028544;28;20134;-78
2023/04/23 03:33:32;;;;;;;3.67;2.85;;;;;;;14.16;71.61;96127.59;5031528;28;20053;-78
2023/04/23 03:36:00;;;;;;;3.90;2.53;;;;;;;14.18;72.10;96125.56;5030822;28;20053;-78
2023/04/23 03:38:27;;;;;;;3.17;2.22;;;;;;;14.17;71.62;96124.78;5027966;28;20065;-78
2023/04/23 03:40:56;;;;;;;4.50;2.55;;;;;;;14.17;71.97;96126.59;5028159;28;20504;-78
2023/04/23 03:43:24;;;;;;;5.13;2.60;;;;;;;14.14;69.35;96134.88;5027505;28;20046;-78
2023/04/23 03:45:52;;;;;;;3.58;2.50;;;;;;;14.15;71.43;96131.25;5034282;28;20109;-79
2023/04/23 03:48:20;;;;;;;5.07;3.30;;;;;;;14.16;71.61;96132.84;5035326;28;20053;-78
2023/04/23 03:50:48;;;;;;;7.10;2.75;;;;;;;14.15;69.83;96132.06;5040770;28;20049;-77
2023/04/23 03:53:16;;;;;;;4.43;2.55;;;;;;;14.13;71.13;96139.34;5040177;28;20038;-78
2023/04/23 03:55:44;;;;;;;2.97;2.25;;;;;;;14.14;70.84;96140.94;5040549;28;20051;-78
2023/04/23 03:58:13;;;;;;;3.35;2.35;;;;;;;14.14;72.22;96135.69;5031953;28;20133;-78
2023/04/23 04:00:41;;;;;;;3.40;2.30;;;;;;;14.15;72.98;96136.50;5032128;28;20046;-78
2023/04/23 04:03:08;;;;;;;5.28;4.05;;;;;;;14.15;72.82;96141.75;5031860;28;20561;-78
2023/04/23 04:05:36;;;;;;;5.38;3.08;;;;;;;14.15;73.32;96133.88;5029441;28;20090;-78
2023/04/23 04:08:04;;;;;;;3.15;2.40;;;;;;;14.14;72.00;96132.25;5029777;28;20060;-78
2023/04/23 04:10:32;;;;;;;3.03;2.17;;;;;;;14.11;72.91;96124.84;5033507;28;20049;-78
2023/04/23 04:13:00;;;;;;;4.30;2.30;;;;;;;14.12;74.31;96131.66;5033175;28;20046;-78
2023/04/23 04:15:29;;;;;;;4.50;2.33;;;;;;;14.11;74.26;96130.09;5032851;28;20054;-78
2023/04/23 04:17:57;;;;;;;1.83;1.73;;;;;;;14.07;73.92;96131.53;5036034;28;20513;-79
2023/04/23 04:20:24;;;;;;;3.92;1.98;;;;;;;13.99;71.63;96128.16;5033131;28;20058;-78
2023/04/23 04:22:52;;;;;;;1.92;1.75;;;;;;;13.96;73.14;96127.78;5034515;28;20109;-78
2023/04/23 04:25:21;;;;;;;3.17;2.15;;;;;;;13.90;71.15;96124.19;5033778;28;20113;-78
2023/04/23 04:27:49;;;;;;;2.13;1.90;;;;;;;13.81;71.01;96117.59;5033345;28;20081;-79
2023/04/23 04:30:17;;;;;;;3.38;1.77;;;;;;;13.75;70.68;96121.06;5034707;28;20058;-78
2023/04/23 04:32:49;;;;;;;2.45;1.83;;;;;;;13.73;71.29;96116.06;5033321;28;20050;-78
2023/04/23 04:35:17;;;;;;;2.85;1.90;;;;;;;13.77;72.74;96119.03;5032767;28;20104;-78
2023/04/23 04:37:45;;;;;;;5.35;2.38;;;;;;;13.76;72.18;96120.88;5032539;28;20077;-78
2023/04/23 04:40:14;;;;;;;3.33;1.80;;;;;;;13.83;73.31;96139.16;5032063;28;20137;-79
2023/04/23 04:42:41;;;;;;;1.50;1.40;;;;;;;13.84;73.29;96143.41;5034742;28;20050;-78
2023/04/23 04:45:10;;;;;;;0.85;0.85;;;;;;;13.79;71.10;96144.03;5035097;28;20069;-78
2023/04/23 04:47:38;;;;;;;1.77;1.15;;;;;;;13.77;71.72;96147.88;5031354;28;20053;-78
2023/04/23 04:50:08;;;;;;;2.22;1.23;;;;;;;13.70;70.75;96153.16;5030884;28;20046;-78
2023/04/23 04:52:35;;;;;;;2.08;0.95;;;;;;;13.66;71.34;96148.56;5027805;28;20117;-78
2023/04/23 04:55:04;;;;;;;1.33;0.70;;;;;;;13.62;69.96;96150.00;5031002;28;20076;-78
2023/04/23 04:57:31;;;;;;;1.10;0.80;;;;;;;13.54;69.43;96143.22;5029061;28;20046;-78
2023/04/23 05:00:03;;;;;;;3.85;0.90;;;;;;;13.48;70.22;96139.59;5033740;28;20056;-78
2023/04/23 05:02:31;;;;;;;2.33;0.88;;;;;;;13.55;73.42;96148.22;5033301;28;20077;-78
2023/04/23 05:04:59;;;;;;;2.03;0.65;;;;;;;13.55;71.02;96137.75;5029864;28;20057;-78
2023/04/23 05:07:28;;;;;;;1.00;0.70;;;;;;;13.55;73.38;96144.81;5032705;28;20073;-79
2023/04/23 05:09:56;;;;;;;1.67;0.70;;;;;;;13.51;71.09;96136.56;5032665;28;20054;-78
2023/04/23 05:12:23;;;;;;;1.00;0.90;;;;;;;13.51;72.14;96133.13;5033601;28;20046;-78
2023/04/23 05:14:51;;;;;;;1.52;1.00;;;;;;;13.59;74.24;96140.75;5032480;28;20133;-78
2023/04/23 05:17:20;;;;;;;0.70;0.70;;;;;;;13.65;74.23;96139.13;5031443;28;20093;-78
2023/04/23 05:19:48;;;;;;;0.63;0.63;;;;;;;13.72;73.90;96145.09;5030989;28;20046;-78
2023/04/23 05:22:17;;;;;;;1.23;0.65;;;;;;;13.74;71.31;96140.44;5030844;28;20089;-78
2023/04/23 05:24:46;;;;;;;0.77;0.60;;;;;;;13.73;72.27;96144.06;5028750;28;20052;-78
2023/04/23 05:27:13;;;;;;;0.40;0.40;;;;;;;13.72;70.71;96142.47;5030671;28;20058;-78
2023/04/23 05:29:41;;;;;;;0.50;0.50;;;;;;;13.75;73.32;96144.66;5033336;28;20104;-78
2023/04/23 05:32:09;;;;;;;0.70;0.60;;;;;;;13.80;73.83;96150.09;5032659;28;20054;-78
2023/04/23 05:34:36;;;;;;;1.88;0.65;;;;;;;13.84;74.33;96153.06;5030456;28;20050;-78
2023/04/23 05:37:05;;;;;;;1.25;0.50;;;;;;;13.88;73.13;96155.06;5029384;28;20114;-78
2023/04/23 05:39:32;;;;;;;0.40;0.40;;;;;;;13.91;73.21;96145.97;5030866;28;20062;-78
2023/04/23 05:42:01;;;;;;;0.75;0.60;;;;;;;13.92;74.02;96152.81;5036235;28;20077;-78
2023/04/23 05:44:29;;;;;;;0.70;0.70;;;;;;;13.92;71.73;96147.56;5035790;28;20030;-79
2023/04/23 05:46:57;;;;;;;0.40;0.40;;;;;;;13.89;72.80;96145.41;5031560;28;20054;-78
2023/04/23 05:49:26;;;;;;;0.70;0.63;;;;;;;13.89;73.14;96148.00;5032418;28;20053;-78
2023/04/23 05:51:53;;;;;;;0.85;0.60;;;;;;;13.91;73.87;96144.16;5032138;28;20060;-79
2023/04/23 05:54:21;;;;;;;1.23;0.70;;;;;;;13.94;73.82;96138.47;5029086;28;20045;-78
2023/04/23 05:56:48;;;;;;;0.60;0.60;;;;;;;13.96;74.38;96149.56;5028196;28;20121;-79
2023/04/23 05:59:17;;;;;;;1.35;0.95;;;;;;;13.98;72.29;96152.75;5029985;28;20054;-79
2023/04/23 06:01:46;;;;;;;1.08;0.70;;;;;;;13.95;71.34;96161.06;5031102;28;20053;-80
2023/04/23 06:04:14;;;;;;;0.80;0.80;;;;;;;13.96;73.94;96157.41;5029877;28;20050;-80
2023/04/23 06:06:42;;;;;;;2.03;0.80;;;;;;;14.00;72.78;96155.97;5029046;28;20057;-80
2023/04/23 06:09:10;;;;;;;1.15;0.75;;;;;;;14.04;70.95;96163.41;5031216;28;20297;-79
2023/04/23 06:11:38;;;;;;;0.63;0.63;;;;;;;14.05;72.92;96167.66;5030102;28;20053;-79
2023/04/23 06:14:05;;;;;;;0.57;0.45;;;;;;;14.07;72.74;96165.63;5031849;28;20109;-79
2023/04/23 06:16:34;;;;;;;0.70;0.70;;;;;;;14.08;74.01;96177.69;5032984;28;20046;-78
2023/04/23 06:19:03;;;;;;;0.47;0.47;;;;;;;14.11;74.94;96175.47;5028845;28;20046;-79
2023/04/23 06:21:31;;;;;;;1.52;0.90;;;;;;;14.11;71.54;96167.59;5032087;28;20037;-78
2023/04/23 06:23:58;;;;;;;1.10;0.63;;;;;;;14.12;71.70;96169.19;5028569;28;20053;-78
2023/04/23 06:26:26;;;;;;;1.50;0.60;;;;;;;14.11;69.83;96166.81;5029128;28;20073;-79
2023/04/23 06:28:54;;;;;;;0.75;0.73;;;;;;;14.09;69.65;96158.34;5029701;28;20046;-79
2023/04/23 06:31:22;;;;;;;2.45;0.90;;;;;;;14.10;72.36;96157.31;5031513;28;20053;-79
2023/04/23 06:33:51;;;;;;;1.70;0.90;;;;;;;14.13;70.08;96141.16;5031172;28;20114;-79
2023/04/23 06:36:18;;;;;;;1.38;0.90;;;;;;;14.11;69.15;96141.38;5030371;28;20110;-79
2023/04/23 06:38:46;;;;;;;1.30;1.15;;;;;;;14.09;69.05;96150.47;5032550;28;20042;-79
2023/04/23 06:41:14;;;;;;;1.35;1.00;;;;;;;14.08;69.08;96140.97;5030219;28;20436;-79
2023/04/23 06:43:42;;;;;;;1.83;0.90;;;;;;;14.11;69.13;96145.81;5031157;28;20157;-78
2023/04/23 06:46:09;;;;;;;1.27;1.17;;;;;;;14.13;68.65;96141.16;5033153;28;20081;-79
2023/04/23 06:48:37;;;;;;;1.08;1.00;;;;;;;14.12;68.16;96150.81;5029637;28;20398;-79
2023/04/23 06:51:06;;;;;;;1.38;0.93;;;;;;;14.13;69.76;96157.69;5031502;28;20046;-79
2023/04/23 06:53:34;;;;;;;1.02;0.95;;;;;;;14.15;69.00;96147.00;5032150;28;20101;-79
2023/04/23 06:56:02;;;;;;;1.17;0.90;;;;;;;14.12;68.73;96139.53;5031677;28;20054;-79
2023/04/23 06:58:31;;;;;;;1.67;1.17;;;;;;;14.08;68.97;96135.75;5031811;28;20053;-79
2023/04/23 07:01:00;;;;;;;1.15;1.05;;;;;;;14.02;69.18;96143.47;5030470;28;20061;-79
2023/04/23 07:03:27;;;;;;;1.15;1.10;;;;;;;13.98;69.80;96142.28;5030723;28;20058;-79
2023/04/23 07:05:55;;;;;;;1.50;1.30;;;;;;;13.97;69.00;96140.69;5030603;28;20118;-79
2023/04/23 07:08:24;;;;;;;1.10;1.10;;;;;;;13.97;69.27;96145.09;5027550;28;20050;-79
2023/04/23 07:10:52;;;;;;;1.90;1.17;;;;;;;14.00;69.64;96142.88;5032215;28;20050;-79
2023/04/23 07:13:19;;;;;;;2.53;0.98;;;;;;;14.07;68.83;96145.44;5031867;28;20058;-79
2023/04/23 07:15:47;;;;;;;0.60;0.60;;;;;;;14.14;68.01;96142.75;5029745;28;20076;-79
2023/04/23 07:18:16;;;;;;;1.92;1.10;;;;;;;14.17;68.36;96142.34;5030699;28;20050;-79
2023/04/23 07:20:44;;;;;;;1.33;0.73;;;;;;;14.21;68.79;96135.63;5035102;28;20101;-79
2023/04/23 07:23:12;;;;;;;1.23;0.90;;;;;;;14.23;68.51;96133.59;5034489;28;20042;-79
2023/04/23 07:25:40;;;;;;;1.15;0.90;;;;;;;14.27;70.88;96134.75;5034375;28;20064;-78
2023/04/23 07:28:08;;;;;;;3.97;1.10;;;;;;;14.34;71.53;96125.03;5033774;28;20113;-79
2023/04/23 07:30:36;;;;;;;0.57;0.57;;;;;;;14.41;71.97;96120.50;5031542;28;20034;-79
2023/04/23 07:33:04;;;;;;;1.10;0.77;;;;;;;14.41;70.35;96112.63;5017140;28;20072;-76
2023/04/23 07:35:31;;;;;;;3.97;1.27;;;;;;;14.39;69.55;96117.28;5016084;28;20449;-75
2023/04/23 07:37:59;;;;;;;1.17;1.00;;;;;;;14.41;69.77;96124.97;5015830;28;20053;-76
2023/04/23 07:40:26;;;;;;;1.50;1.10;;;;;;;14.53;71.50;96119.78;5015502;28;20045;-76
2023/04/23 07:42:55;;;;;;;1.30;1.20;;;;;;;14.65;70.08;96125.94;5015487;28;20056;-76
2023/04/23 07:45:24;;;;;;;0.95;0.90;;;;;;;14.77;71.66;96124.19;5016205;28;20046;-76
2023/04/23 07:47:52;;;;;;;3.08;1.88;;;;;;;14.90;70.85;96125.84;5016476;28;20407;-76
2023/04/23 07:50:19;;;;;;;7.32;3.90;;;;;;;14.96;71.72;96132.06;5016392;28;20077;-77
2023/04/23 07:52:47;;;;;;;15.57;6.28;;;;;;;15.00;71.63;96130.59;5015114;28;20052;-76
2023/04/23 07:55:15;;;;;;;7.35;4.10;;;;;;;14.99;70.04;96121.91;5015611;28;20062;-76
2023/04/23 07:57:42;;;;;;;3.92;2.78;;;;;;;15.03;71.14;96130.16;5015723;28;20057;-77
2023/04/23 08:00:13;;;;;;;1.92;1.42;;;;;;;15.07;70.31;96123.44;5015239;28;20052;-76
2023/04/23 08:02:41;;;;;;;1.20;0.95;;;;;;;15.08;67.17;96118.97;5014811;28;20085;-76
2023/04/23 08:05:09;;;;;;;2.10;0.82;;;;;;;15.05;66.92;96120.22;5015354;28;20073;-77
2023/04/23 08:07:37;;;;;;;0.65;0.65;;;;;;;15.07;69.24;96118.19;5023502;28;20077;-76
2023/04/23 08:10:06;;;;;;;1.20;0.70;;;;;;;15.19;66.16;96115.59;5019871;28;20049;-76
2023/04/23 08:12:34;;;;;;;0.80;0.80;;;;;;;15.29;67.27;96112.44;5016514;28;20646;-75
2023/04/23 08:15:03;;;;;;;1.23;0.88;;;;;;;15.40;68.48;96114.31;5014787;28;20133;-76
2023/04/23 08:17:32;;;;;;;2.00;1.00;;;;;;;15.55;68.51;96108.63;5017658;28;20129;-76
2023/04/23 08:19:59;;;;;;;1.25;1.13;;;;;;;15.65;68.42;96120.22;5022835;28;20041;-76
2023/04/23 08:22:27;;;;;;;0.70;0.70;;;;;;;15.70;66.90;96114.28;5019698;28;20081;-77
2023/04/23 08:24:54;;;;;;;0.70;0.70;;;;;;;15.67;64.35;96101.56;5036624;28;20420;-77
2023/04/23 08:27:22;;;;;;;0.68;0.68;;;;;;;15.66;63.60;96111.28;5026745;28;20054;-76
2023/04/23 08:29:50;;;;;;;0.65;0.65;;;;;;;15.76;64.81;96094.19;5014159;28;20042;-76
2023/04/23 08:32:18;;;;;;;1.20;0.80;;;;;;;15.87;64.55;96101.28;5032452;28;20513;-77
2023/04/23 08:34:47;;;;;;;0.73;0.73;;;;;;;16.02;65.92;96098.22;5034705;28;20057;-75
2023/04/23 08:37:14;;;;;;;1.42;0.70;;;;;;;16.18;65.57;96102.78;5033197;28;20497;-76
2023/04/23 08:39:56;;;;;;;1.55;0.80;;;;;;;16.26;64.66;96099.00;5035211;28;20092;-78
2023/04/23 08:42:35;;;;;;;1.83;1.50;;;;;;;16.20;62.51;96105.19;5034220;28;20049;-75
2023/04/23 08:45:04;;;;;;;3.15;0.77;;;;;;;16.14;63.95;96109.53;5024413;28;20053;-75
2023/04/23 08:47:33;;;;;;;0.47;0.47;;;;;;;16.10;62.55;96113.66;5018618;28;20537;-75
2023/04/23 08:50:04;;;;;;;0.38;0.30;;;;;;;16.09;60.10;96104.16;5034710;28;20053;-75
2023/04/23 08:52:34;;;;;;;0.88;0.35;;;;;;;16.18;60.09;96107.25;5021112;28;20107;-76
2023/04/23 08:55:09;;;;;;;0.95;0.45;;;;;;;16.38;63.44;96109.53;5032424;28;20145;-76
2023/04/23 08:57:38;;;;;;;0.70;0.25;;;;;;;16.44;59.76;96100.69;5013045;28;20081;-75
2023/04/23 09:00:09;;;;;;;0.47;0.47;;;;;;;16.38;60.58;96102.44;5011764;28;20046;-74
2023/04/23 09:02:38;;;;;;;0.47;0.40;;;;;;;16.31;60.23;96095.69;5050835;28;20105;-75
2023/04/23 09:05:08;;;;;;;0.73;0.68;;;;;;;16.21;59.31;96096.28;5044554;28;20049;-75
2023/04/23 09:07:36;;;;;;;0.95;0.68;;;;;;;16.23;62.65;96087.09;4997963;28;20094;-75
2023/04/23 09:10:06;;;;;;;0.73;0.40;;;;;;;16.26;59.80;96085.84;5006713;28;20049;-74
2023/04/23 09:12:35;;;;;;;1.98;0.60;;;;;;;16.26;59.22;96089.28;5034860;28;20056;-74
2023/04/23 09:15:09;;;;;;;1.75;0.60;;;;;;;16.33;62.52;96091.78;5029643;28;20149;-74
2023/04/23 09:17:39;;;;;;;0.43;0.40;;;;;;;16.51;62.32;96090.03;5000961;28;20053;-76
2023/04/23 09:20:09;;;;;;;0.50;0.35;;;;;;;16.64;61.35;96084.56;5014054;28;20517;-76
2023/04/23 09:22:41;;;;;;;0.40;0.40;;;;;;;16.74;57.97;96074.19;5016789;28;20425;-76
2023/04/23 09:25:15;;;;;;;0.43;0.43;;;;;;;16.75;59.21;96067.91;5031962;28;20049;-76
2023/04/23 09:27:42;;;;;;;0.30;0.30;;;;;;;16.76;57.88;96071.34;5033038;28;20512;-76
2023/04/23 09:30:12;;;;;;;2.28;0.57;;;;;;;16.78;57.26;96070.06;5031824;28;20048;-76
2023/04/23 09:32:41;;;;;;;0.50;0.50;;;;;;;16.76;57.06;96066.88;5034841;23;20080;-78
2023/04/23 09:35:13;;;;;;;0.50;0.47;;;;;;;16.74;56.93;96057.59;5033021;28;20505;-78
2023/04/23 09:37:42;;;;;;;;;;;;;;;16.77;57.59;96054.50;5017141;28;20402;-79
2023/04/23 09:40:13;;;;;;;0.47;0.47;;;;;;;16.80;57.23;96051.44;5019050;28;19957;-80
2023/04/23 09:42:40;;;;;;;0.80;0.38;;;;;;;16.89;56.98;96045.56;5019447;28;20105;-81
2023/04/23 09:45:11;;;;;;;0.30;0.30;;;;;;;16.94;56.45;96044.84;5018272;28;20050;-79
2023/04/23 09:47:40;;;;;;;0.60;0.60;;;;;;;16.98;56.06;96042.56;5020064;28;20045;-78
2023/04/23 09:50:09;;;;;;;0.70;0.70;;;;;;;17.07;55.68;96036.66;5018193;28;20128;-80
2023/04/23 09:52:40;;;;;;;0.82;0.55;;;;;;;17.28;55.09;96040.44;5019641;28;20133;-78
2023/04/23 09:55:08;;;;;;;1.33;0.57;;;;;;;17.35;54.24;96032.38;5020531;28;20081;-79
2023/04/23 09:57:37;;;;;;;1.02;0.80;;;;;;;17.31;54.41;96031.25;5018164;28;20046;-79
2023/04/23 10:00:14;;;;;;;1.98;1.33;;;;;;;17.30;54.56;96035.75;5016946;28;20046;-78
2023/04/23 10:02:47;;;;;;;1.08;0.98;;;;;;;17.36;54.83;96027.91;4998733;28;20097;-78
2023/04/23 10:05:16;;;;;;;0.70;0.70;;;;;;;17.54;54.94;96029.53;5006773;28;20125;-78
2023/04/23 10:07:56;;;;;;;2.90;0.52;;;;;;;17.66;53.26;96028.41;5017800;28;20117;-80
2023/04/23 10:10:24;;;;;;;0.98;0.73;;;;;;;17.80;52.93;96028.06;5021872;28;20042;-81
2023/04/23 10:12:53;;;;;;;1.08;0.50;;;;;;;18.02;52.90;96023.69;5029400;28;20050;-81
2023/04/23 10:15:25;;;;;;;0.50;0.50;;;;;;;18.37;52.42;96014.66;5029932;28;20053;-80
2023/04/23 10:17:53;;;;;;;1.00;0.70;;;;;;;18.70;51.84;96018.19;5026930;28;20080;-80
2023/04/23 10:20:22;;;;;;;1.08;0.60;;;;;;;18.97;51.19;96012.94;5022788;28;20050;-80
2023/04/23 10:22:52;;;;;;;0.95;0.40;;;;;;;19.05;53.49;96009.06;5024071;28;20050;-78
2023/04/23 10:25:24;;;;;;;0.52;0.40;;;;;;;19.07;52.05;96014.91;5023919;28;20080;-80
2023/04/23 10:27:53;;;;;;;0.68;0.40;;;;;;;19.02;50.73;96017.50;5024697;28;20080;-80
2023/04/23 10:30:21;;;;;;;0.20;0.20;;;;;;;18.92;49.78;96016.34;5024428;28;20049;-78
2023/04/23 10:32:50;;;;;;;0.52;0.22;;;;;;;18.90;48.51;96013.16;5024108;28;20108;-80
2023/04/23 10:35:18;;;;;;;2.58;0.40;;;;;;;18.88;47.93;96011.81;5023759;28;20080;-80
2023/04/23 10:37:47;;;;;;;0.40;0.30;;;;;;;18.82;49.67;96010.16;5022207;28;20057;-82
2023/04/23 10:40:20;;;;;;;0.30;0.22;;;;;;;18.73;49.02;96015.84;5025872;28;20061;-83
2023/04/23 10:42:51;;;;;;;0.65;0.40;;;;;;;18.65;47.05;96008.38;5007763;28;20487;-81
2023/04/23 10:45:20;;;;;;;0.77;0.30;;;;;;;18.55;50.09;96004.81;5021326;28;20476;-84
2023/04/23 10:47:53;;;;;;;1.45;0.20;;;;;;;18.59;48.84;96000.66;5024603;28;20068;-82
2023/04/23 10:50:23;;;;;;;0.88;0.32;;;;;;;18.70;47.85;95992.56;5022864;28;20053;-86
2023/04/23 10:52:52;;;;;;;2.15;0.45;;;;;;;18.79;47.87;95992.16;5020928;28;20056;-79
2023/04/23 10:55:22;;;;;;;1.00;0.30;;;;;;;18.90;50.57;95989.38;5025840;28;20046;-82
2023/04/23 10:58:02;;;;;;;0.40;0.40;;;;;;;19.08;49.99;95984.78;5026980;28;20144;-82
2023/04/23 11:00:44;;;;;;;0.60;0.60;;;;;;;19.40;48.43;95982.16;5023721;28;20050;-76
2023/04/23 11:03:29;;;;;;;0.60;0.40;;;;;;;19.66;47.82;95972.53;5022099;28;20061;-77
2023/04/23 11:05:58;;;;;;;1.65;0.52;;;;;;;19.72;46.97;95968.91;5022108;28;20128;-79
2023/04/23 11:08:25;;;;;;;2.42;0.77;;;;;;;19.73;46.15;95964.41;5024039;28;20054;-79
2023/04/23 11:10:56;;;;;;;2.83;0.88;;;;;;;19.77;46.09;95952.28;5024757;28;20050;-78
2023/04/23 11:13:26;;;;;;;0.95;0.80;;;;;;;19.92;46.54;95948.91;5023537;28;20045;-79
2023/04/23 11:16:14;;;;;;;0.70;0.70;;;;;;;20.14;46.73;95948.75;5025071;28;20046;-77
2023/04/23 11:19:01;;;;;;;3.63;0.70;;;;;;;20.19;44.61;95947.97;5024034;28;20046;-82
2023/04/23 11:21:56;;;;;;;0.55;0.50;;;;;;;20.16;46.17;95944.78;5024971;28;20081;-78
2023/04/23 11:24:24;;;;;;;0.63;0.60;;;;;;;20.21;45.04;95938.72;5022779;28;20145;-78
2023/04/23 11:26:52;;;;;;;1.30;0.70;;;;;;;20.13;44.57;95937.34;5023608;28;20053;-78
2023/04/23 11:29:23;;;;;;;1.23;0.88;;;;;;;20.04;44.73;95936.25;5023150;28;20073;-78
2023/04/23 11:31:51;;;;;;;0.93;0.70;;;;;;;20.01;45.19;95928.84;5024667;28;20069;-82
2023/04/23 11:34:23;;;;;;;0.70;0.70;;;;;;;19.99;45.42;95930.16;5024062;28;20505;-80
2023/04/23 11:36:53;;;;;;;1.13;0.65;;;;;;;19.95;45.73;95924.56;5013930;28;20057;-77
2023/04/23 11:39:22;;;;;;;0.80;0.80;;;;;;;19.88;44.17;95930.09;5016149;28;20080;-79
2023/04/23 11:41:51;;;;;;;0.70;0.50;;;;;;;19.81;47.17;95924.25;5019005;28;20113;-80